Sillery, Canada
Current Conditions -  °F | °C
As of 9:00 AM on Sunday 23 Nov 2014 (Local Time) from CYQB Reporting Station
Haze Haze  
Wind Chill: 26°   Ceiling: 500
Heat Index: 34°   Visibility: 1.5mi
Dew Point: 34°   Wind: 10mph
Humidity: 100%   Direction: 240°WSW
Pressure: 30.01"   Gusts: NA
Location:  46.78°N, 71.26°W
Report Text: CYQB 231400Z 24009KT 1 1/2SM BR OVC005 01/01 A3001 RMK FG2ST6 CIG VRB 4-6 SLP165
Loading
Personal Weather Stations






























Interactive Weather Map New forecast layout! Learn more

10-Day Weather Forecast

Advertisements
Track Severe Weather on mobile